Terminal Aerodrome Forecast
Issued by NWS

Home | Current Version | Previous Version | Text Only | Print | Product List | Glossary On
Versions: 1 2 3 4 5 6 7 8 9 10 11 12 13 14 15 16 17 18
000
FTUS43 KMQT 270530
TAFSAW
TAF
KSAW 270530Z 2706/2806 02007KT 3SM -SHRA BR VV002
     FM271200 33010G16KT 3SM -SHRA BR OVC004
     FM271400 32012G18KT 5SM -SHRA BR OVC008
     FM271600 30011KT P6SM BKN050
     FM272000 18008KT P6SM VCSH BKN050
     FM272200 03008KT P6SM VCSH BKN040
     FM280200 VRB03KT P6SM BKN050=

USA.gov is the U.S. government's official web portal to all federal, state and local government web resources and services.